Time;durP1;ratioP1;P1;durP2;ratioP2;P2;SDS_P1;SDS_P2;PMS_P1;PMS_P2;Temp;Humidity;BMP_temperature;BMP_pressure;BME280_temperature;BME280_humidity;BME280_pressure;Samples;Min_cycle;Max_cycle;Signal;HPM_P1;HPM_P2
2023/05/01 00:00:49;;;;;;;;;16.25;10.25;;;;;;;;5035869;28;45303;-85
2023/05/01 00:03:16;;;;;;;;;16.50;11.00;;;;;;;;5018003;28;46030;-84
2023/05/01 00:05:41;;;;;;;;;14.50;10.50;;;;;;;;5017948;28;45282;-84
2023/05/01 00:08:07;;;;;;;;;9.00;8.33;;;;;;;;5041583;28;45366;-84
2023/05/01 00:10:34;;;;;;;;;15.33;10.33;;;;;;;;5042244;28;45415;-84
2023/05/01 00:12:59;;;;;;;;;12.25;10.00;;;;;;;;5042341;28;45824;-84
2023/05/01 00:15:24;;;;;;;;;10.00;8.00;;;;;;;;5042521;28;45360;-84
2023/05/01 00:17:50;;;;;;;;;12.67;9.00;;;;;;;;5042446;28;45361;-84
2023/05/01 00:20:15;;;;;;;;;9.50;9.25;;;;;;;;5042189;28;46131;-84
2023/05/01 00:22:41;;;;;;;;;13.75;8.25;;;;;;;;5042033;28;45242;-84
2023/05/01 00:25:09;;;;;;;;;13.25;11.00;;;;;;;;5042247;28;45291;-84
2023/05/01 00:27:37;;;;;;;;;20.25;11.00;;;;;;;;5042418;28;45429;-84
2023/05/01 00:30:02;;;;;;;;;14.50;9.75;;;;;;;;5042121;28;46433;-85
2023/05/01 00:32:30;;;;;;;;;11.25;6.25;;;;;;;;5042217;28;45420;-85
2023/05/01 00:34:58;;;;;;;;;10.75;10.00;;;;;;;;5039610;28;45462;-84
2023/05/01 00:37:23;;;;;;;;;14.50;11.00;;;;;;;;5061821;28;45376;-84
2023/05/01 00:39:49;;;;;;;;;15.67;11.67;;;;;;;;5062150;28;46410;-84
2023/05/01 00:42:14;;;;;;;;;19.00;12.75;;;;;;;;5062097;28;45345;-84
2023/05/01 00:44:39;;;;;;;;;13.00;10.00;;;;;;;;5062467;28;45347;-83
2023/05/01 00:47:05;;;;;;;;;13.00;9.67;;;;;;;;5062391;28;45472;-83
2023/05/01 00:49:32;;;;;;;;;12.25;10.00;;;;;;;;5061984;28;46856;-85
2023/05/01 00:51:58;;;;;;;;;14.50;11.50;;;;;;;;5062095;28;45713;-83
2023/05/01 00:54:25;;;;;;;;;15.50;8.75;;;;;;;;5062210;28;45851;-84
2023/05/01 00:56:51;;;;;;;;;15.75;10.25;;;;;;;;5062209;28;45345;-84
2023/05/01 00:59:16;;;;;;;;;12.50;9.75;;;;;;;;5062131;28;47273;-85
2023/05/01 01:01:41;;;;;;;;;15.00;8.75;;;;;;;;5044133;28;45366;-85
2023/05/01 01:04:07;;;;;;;;;12.00;10.33;;;;;;;;5044088;28;45463;-85
2023/05/01 01:06:48;;;;;;;;;10.00;9.00;;;;;;;;5061384;28;45504;-84
2023/05/01 01:09:16;;;;;;;;;9.50;8.00;;;;;;;;5062015;28;45490;-85
2023/05/01 01:11:45;;;;;;;;;10.75;9.00;;;;;;;;5035134;28;45670;-84
2023/05/01 01:14:46;;;;;;;;;10.50;9.00;;;;;;;;5022161;28;45565;-84
2023/05/01 01:17:28;;;;;;;;;14.75;11.00;;;;;;;;4906234;28;45388;-85
2023/05/01 01:20:11;;;;;;;;;14.25;10.00;;;;;;;;4917975;28;45498;-84
2023/05/01 01:22:38;;;;;;;;;12.50;9.50;;;;;;;;4918686;28;45332;-84
2023/05/01 01:25:05;;;;;;;;;15.75;10.75;;;;;;;;4919088;28;45414;-84
2023/05/01 01:27:39;;;;;;;;;14.75;7.75;;;;;;;;4918816;28;45541;-84
2023/05/01 01:30:05;;;;;;;;;13.00;9.50;;;;;;;;4918704;28;46371;-83
2023/05/01 01:32:45;;;;;;;;;14.75;11.25;;;;;;;;4918586;28;45698;-84
2023/05/01 01:35:15;;;;;;;;;14.25;8.25;;;;;;;;4918507;28;45409;-84
2023/05/01 01:37:48;;;;;;;;;10.25;9.75;;;;;;;;4918488;28;45369;-83
2023/05/01 01:40:21;;;;;;;;;12.50;9.75;;;;;;;;4918864;28;46943;-81
2023/05/01 01:42:51;;;;;;;;;16.50;10.75;;;;;;;;4902369;28;45758;-82
2023/05/01 01:45:22;;;;;;;;;16.00;10.25;;;;;;;;4918376;28;45384;-83
2023/05/01 01:47:48;;;;;;;;;15.25;9.00;;;;;;;;4918636;28;45392;-83
2023/05/01 01:50:15;;;;;;;;;11.75;9.00;;;;;;;;4929087;28;46680;-85
2023/05/01 01:52:44;;;;;;;;;10.50;7.75;;;;;;;;4999686;28;45890;-84
2023/05/01 01:55:11;;;;;;;;;12.75;9.00;;;;;;;;5018055;28;45287;-83
2023/05/01 01:57:38;;;;;;;;;11.25;10.00;;;;;;;;4999882;28;45401;-84
2023/05/01 02:00:07;;;;;;;;;12.75;8.50;;;;;;;;5017748;28;45622;-84
2023/05/01 02:02:34;;;;;;;;;14.25;9.00;;;;;;;;5017891;28;45398;-84
2023/05/01 02:05:00;;;;;;;;;8.25;7.25;;;;;;;;4999687;28;45370;-84
2023/05/01 02:07:26;;;;;;;;;10.00;9.00;;;;;;;;4999881;28;45513;-83
2023/05/01 02:09:52;;;;;;;;;14.00;8.25;;;;;;;;5017619;28;46189;-85
2023/05/01 02:12:18;;;;;;;;;9.50;9.00;;;;;;;;5026462;28;45480;-84
2023/05/01 02:14:44;;;;;;;;;11.00;8.50;;;;;;;;5019656;28;45390;-84
2023/05/01 02:17:10;;;;;;;;;11.50;8.00;;;;;;;;5037630;28;45385;-85
2023/05/01 02:19:38;;;;;;;;;12.50;8.25;;;;;;;;5037299;28;45389;-83
2023/05/01 02:22:04;;;;;;;;;7.75;6.00;;;;;;;;5037649;28;45736;-84
2023/05/01 02:24:37;;;;;;;;;7.50;7.50;;;;;;;;5037760;28;45223;-85
2023/05/01 02:27:15;;;;;;;;;14.25;9.50;;;;;;;;5037312;28;45525;-85
2023/05/01 02:29:41;;;;;;;;;12.75;8.25;;;;;;;;5018649;28;48087;-85
2023/05/01 02:32:07;;;;;;;;;8.00;7.00;;;;;;;;5037317;28;45326;-85
2023/05/01 02:34:35;;;;;;;;;9.50;7.75;;;;;;;;5036812;28;45362;-84
2023/05/01 02:37:00;;;;;;;;;9.50;8.00;;;;;;;;5037150;28;45469;-83
2023/05/01 02:39:26;;;;;;;;;9.25;7.00;;;;;;;;5036869;28;47614;-84
2023/05/01 02:41:52;;;;;;;;;8.33;8.00;;;;;;;;5037126;28;45430;-85
2023/05/01 02:44:18;;;;;;;;;11.75;9.75;;;;;;;;5018979;28;45437;-84
2023/05/01 02:46:45;;;;;;;;;7.75;6.25;;;;;;;;5018968;28;45555;-84
2023/05/01 02:49:11;;;;;;;;;9.00;8.25;;;;;;;;5018791;28;47178;-83
2023/05/01 02:51:37;;;;;;;;;12.00;8.00;;;;;;;;5037169;28;45458;-84
2023/05/01 02:54:02;;;;;;;;;10.25;8.25;;;;;;;;5036864;28;45361;-83
2023/05/01 02:56:28;;;;;;;;;3.75;3.00;;;;;;;;5036978;28;45613;-83
2023/05/01 02:58:53;;;;;;;;;11.75;7.50;;;;;;;;5036480;28;47051;-84
2023/05/01 03:01:22;;;;;;;;;9.50;6.75;;;;;;;;5037026;28;45393;-84
2023/05/01 03:03:47;;;;;;;;;8.25;7.00;;;;;;;;5036368;28;45305;-84
2023/05/01 03:06:18;;;;;;;;;14.00;10.00;;;;;;;;5036606;28;45512;-84
2023/05/01 03:08:43;;;;;;;;;11.50;8.00;;;;;;;;5036586;28;45408;-84
2023/05/01 03:11:08;;;;;;;;;8.00;8.00;;;;;;;;5036462;28;45392;-84
2023/05/01 03:13:33;;;;;;;;;9.33;8.00;;;;;;;;5017301;28;45302;-84
2023/05/01 03:15:59;;;;;;;;;9.00;8.00;;;;;;;;4998885;28;45647;-84
2023/05/01 03:18:25;;;;;;;;;10.00;8.00;;;;;;;;4998203;28;47370;-84
2023/05/01 03:20:52;;;;;;;;;15.00;8.75;;;;;;;;5016775;28;45894;-84
2023/05/01 03:23:17;;;;;;;;;9.00;8.25;;;;;;;;5016552;28;45323;-84
2023/05/01 03:25:42;;;;;;;;;8.67;7.67;;;;;;;;5016482;28;45387;-84
2023/05/01 03:28:08;;;;;;;;;7.33;6.00;;;;;;;;5016208;28;45982;-84
2023/05/01 03:30:35;;;;;;;;;8.50;8.25;;;;;;;;4998521;28;45892;-84
2023/05/01 03:33:00;;;;;;;;;15.50;9.00;;;;;;;;4998460;28;45299;-85
2023/05/01 03:35:25;;;;;;;;;14.00;9.67;;;;;;;;5016495;28;45242;-84
2023/05/01 03:37:50;;;;;;;;;13.00;11.00;;;;;;;;5016166;28;46281;-84
2023/05/01 03:40:18;;;;;;;;;16.33;9.33;;;;;;;;4998670;28;45335;-85
2023/05/01 03:42:43;;;;;;;;;14.00;9.75;;;;;;;;4997581;28;45377;-85
2023/05/01 03:45:09;;;;;;;;;8.50;7.25;;;;;;;;5016322;28;45439;-84
2023/05/01 03:47:34;;;;;;;;;12.50;9.00;;;;;;;;5015708;28;45589;-84
2023/05/01 03:49:59;;;;;;;;;16.50;10.00;;;;;;;;5015988;28;45316;-83
2023/05/01 03:52:25;;;;;;;;;14.00;13.00;;;;;;;;5016425;28;45376;-84
2023/05/01 03:54:50;;;;;;;;;15.00;11.75;;;;;;;;5016051;28;45556;-84
2023/05/01 03:57:15;;;;;;;;;14.67;11.00;;;;;;;;5015854;28;46343;-84
2023/05/01 03:59:42;;;;;;;;;14.50;11.00;;;;;;;;5015863;28;45313;-84
2023/05/01 04:02:07;;;;;;;;;21.75;12.00;;;;;;;;5015602;28;45407;-83
2023/05/01 04:04:33;;;;;;;;;10.75;9.00;;;;;;;;5015978;28;45323;-84
2023/05/01 04:06:59;;;;;;;;;19.75;13.75;;;;;;;;4998164;28;47800;-83
2023/05/01 04:09:24;;;;;;;;;14.33;14.33;;;;;;;;5015944;28;45219;-85
2023/05/01 04:11:49;;;;;;;;;13.75;9.00;;;;;;;;5020774;28;45388;-84
2023/05/01 04:14:14;;;;;;;;;15.33;11.00;;;;;;;;5035726;28;45520;-83
2023/05/01 04:16:39;;;;;;;;;15.67;11.00;;;;;;;;5035102;28;46364;-84
2023/05/01 04:19:05;;;;;;;;;19.33;13.33;;;;;;;;5017759;28;45440;-83
2023/05/01 04:21:30;;;;;;;;;18.00;14.33;;;;;;;;5035767;28;45338;-85
2023/05/01 04:23:55;;;;;;;;;18.00;14.00;;;;;;;;5035969;28;45248;-85
2023/05/01 04:26:21;;;;;;;;;17.25;17.25;;;;;;;;5035231;28;46037;-84
2023/05/01 04:28:46;;;;;;;;;11.33;8.67;;;;;;;;5035379;28;45373;-84
2023/05/01 04:31:11;;;;;;;;;13.33;11.00;;;;;;;;5017476;28;45556;-83
2023/05/01 04:33:36;;;;;;;;;20.25;14.25;;;;;;;;5035605;28;45491;-83
2023/05/01 04:36:02;;;;;;;;;13.67;11.00;;;;;;;;5035623;28;46200;-84
2023/05/01 04:38:29;;;;;;;;;15.33;11.33;;;;;;;;5035242;28;45376;-84
2023/05/01 04:40:55;;;;;;;;;18.25;12.00;;;;;;;;5035665;28;45426;-85
2023/05/01 04:43:20;;;;;;;;;16.75;13.00;;;;;;;;5035479;28;45634;-84
2023/05/01 04:45:45;;;;;;;;;14.67;13.33;;;;;;;;5017156;28;47297;-85
2023/05/01 04:48:10;;;;;;;;;19.67;12.00;;;;;;;;5035500;28;45280;-85
2023/05/01 04:50:36;;;;;;;;;17.33;16.00;;;;;;;;5035478;28;45405;-85
2023/05/01 04:53:02;;;;;;;;;15.50;12.00;;;;;;;;5036587;28;45441;-83
2023/05/01 04:55:27;;;;;;;;;22.00;16.50;;;;;;;;5020994;28;47105;-85
2023/05/01 04:57:52;;;;;;;;;16.00;13.00;;;;;;;;5020645;28;45855;-85
2023/05/01 05:00:18;;;;;;;;;29.67;13.67;;;;;;;;5038940;28;45368;-84
2023/05/01 05:02:44;;;;;;;;;14.25;13.25;;;;;;;;5038713;28;45536;-85
2023/05/01 05:05:09;;;;;;;;;20.00;13.00;;;;;;;;5020654;28;45559;-84
2023/05/01 05:07:34;;;;;;;;;25.25;18.25;;;;;;;;5038512;28;45293;-85
2023/05/01 05:10:00;;;;;;;;;14.00;13.33;;;;;;;;5021164;28;45346;-85
2023/05/01 05:12:25;;;;;;;;;19.33;13.00;;;;;;;;5037953;28;45282;-85
2023/05/01 05:14:50;;;;;;;;;22.33;17.33;;;;;;;;5038418;28;45405;-84
2023/05/01 05:17:15;;;;;;;;;19.67;13.33;;;;;;;;5038068;28;45610;-83
2023/05/01 05:19:40;;;;;;;;;16.00;13.33;;;;;;;;5038690;28;45245;-84
2023/05/01 05:22:06;;;;;;;;;20.33;18.00;;;;;;;;5038312;28;45513;-84
2023/05/01 05:24:31;;;;;;;;;23.50;18.50;;;;;;;;5038332;28;47046;-84
2023/05/01 05:26:56;;;;;;;;;23.00;17.33;;;;;;;;5033947;28;45618;-84
2023/05/01 05:29:22;;;;;;;;;18.67;17.33;;;;;;;;5040465;28;45402;-84
2023/05/01 05:31:47;;;;;;;;;18.00;15.00;;;;;;;;5058352;28;45352;-84
2023/05/01 05:34:12;;;;;;;;;20.33;17.00;;;;;;;;5058185;28;46470;-84
2023/05/01 05:36:37;;;;;;;;;25.00;17.75;;;;;;;;5058337;28;45476;-84
2023/05/01 05:39:03;;;;;;;;;21.67;17.00;;;;;;;;5058051;28;45349;-84
2023/05/01 05:41:28;;;;;;;;;22.67;16.00;;;;;;;;5057794;28;45320;-84
2023/05/01 05:43:53;;;;;;;;;30.25;18.25;;;;;;;;5039972;28;47255;-84
2023/05/01 05:46:18;;;;;;;;;31.00;14.00;;;;;;;;5040014;28;45369;-84
2023/05/01 05:48:44;;;;;;;;;25.00;18.00;;;;;;;;5040181;28;45327;-84
2023/05/01 05:51:09;;;;;;;;;15.33;12.67;;;;;;;;5039987;28;45440;-84
2023/05/01 05:53:37;;;;;;;;;30.33;20.33;;;;;;;;5058008;28;46423;-84
2023/05/01 05:56:03;;;;;;;;;22.75;18.00;;;;;;;;5057735;28;45952;-85
2023/05/01 05:58:28;;;;;;;;;23.00;15.50;;;;;;;;5057982;28;45231;-84
2023/05/01 06:01:00;;;;;;;;;26.75;18.75;;;;;;;;5039997;28;45299;-85
2023/05/01 06:03:26;;;;;;;;;24.75;18.50;;;;;;;;5039741;28;48881;-84
2023/05/01 06:05:51;;;;;;;;;18.00;17.75;;;;;;;;5056870;28;45369;-84
2023/05/01 06:08:16;;;;;;;;;27.25;19.25;;;;;;;;5058022;28;45403;-85
2023/05/01 06:10:42;;;;;;;;;25.33;13.00;;;;;;;;5057455;28;45374;-84
2023/05/01 06:13:08;;;;;;;;;24.00;21.00;;;;;;;;5007886;28;47923;-84
2023/05/01 06:15:34;;;;;;;;;26.00;20.25;;;;;;;;5017357;28;45604;-84
2023/05/01 06:18:02;;;;;;;;;22.75;16.50;;;;;;;;4999798;28;45405;-84
2023/05/01 06:20:28;;;;;;;;;27.50;20.00;;;;;;;;5017733;28;45374;-84
2023/05/01 06:22:53;;;;;;;;;34.75;20.75;;;;;;;;5017305;28;46092;-85
2023/05/01 06:25:18;;;;;;;;;25.33;20.67;;;;;;;;4999473;28;45365;-85
2023/05/01 06:27:43;;;;;;;;;28.67;19.67;;;;;;;;5017636;28;45429;-85
2023/05/01 06:30:09;;;;;;;;;26.67;20.67;;;;;;;;5017536;28;45432;-85
2023/05/01 06:32:35;;;;;;;;;22.75;18.50;;;;;;;;5017169;28;46367;-84
2023/05/01 06:35:00;;;;;;;;;28.75;19.50;;;;;;;;5017323;28;45429;-84
2023/05/01 06:37:28;;;;;;;;;17.33;15.00;;;;;;;;5017165;28;45383;-85
2023/05/01 06:39:53;;;;;;;;;22.50;16.00;;;;;;;;4999775;28;45311;-87
2023/05/01 06:42:20;;;;;;;;;22.00;18.00;;;;;;;;4999877;28;48331;-87
2023/05/01 06:44:45;;;;;;;;;30.25;21.00;;;;;;;;5016840;28;45358;-79
2023/05/01 06:47:10;;;;;;;;;27.33;21.00;;;;;;;;5026168;28;45779;-80
2023/05/01 06:49:36;;;;;;;;;29.33;19.00;;;;;;;;5023370;28;45442;-80
2023/05/01 06:52:01;;;;;;;;;30.67;19.00;;;;;;;;5025037;28;46367;-81
2023/05/01 06:54:26;;;;;;;;;27.67;17.33;;;;;;;;5016927;28;45370;-84
2023/05/01 06:56:52;;;;;;;;;28.25;19.50;;;;;;;;5029715;28;45499;-83
2023/05/01 06:59:17;;;;;;;;;24.75;17.00;;;;;;;;5027975;28;45273;-84
2023/05/01 07:01:42;;;;;;;;;29.67;20.67;;;;;;;;4999126;28;46918;-83
2023/05/01 07:04:07;;;;;;;;;23.25;19.50;;;;;;;;5008872;28;45540;-83
2023/05/01 07:06:33;;;;;;;;;20.67;13.33;;;;;;;;5028162;28;45436;-84
2023/05/01 07:08:59;;;;;;;;;18.75;16.75;;;;;;;;5025326;28;45555;-85
2023/05/01 07:11:25;;;;;;;;;18.25;15.00;;;;;;;;5016827;28;47911;-81
2023/05/01 07:13:50;;;;;;;;;18.00;13.50;;;;;;;;5031901;28;45604;-82
2023/05/01 07:16:16;;;;;;;;;23.00;16.00;;;;;;;;5035419;28;45353;-81
2023/05/01 07:18:41;;;;;;;;;17.67;13.33;;;;;;;;5036290;28;45360;-80
2023/05/01 07:21:08;;;;;;;;;17.67;13.67;;;;;;;;5036172;28;45604;-80
2023/05/01 07:23:34;;;;;;;;;15.75;12.00;;;;;;;;5009647;28;45344;-81
2023/05/01 07:25:59;;;;;;;;;11.50;11.50;;;;;;;;5033288;28;45355;-79
2023/05/01 07:28:25;;;;;;;;;15.75;12.00;;;;;;;;5020940;28;45638;-84
2023/05/01 07:30:50;;;;;;;;;17.00;10.00;;;;;;;;5027807;28;46405;-82
2023/05/01 07:33:15;;;;;;;;;16.25;9.50;;;;;;;;5020347;28;45384;-81
2023/05/01 07:35:41;;;;;;;;;15.00;10.00;;;;;;;;5023642;28;45515;-85
2023/05/01 07:38:09;;;;;;;;;15.25;9.75;;;;;;;;5026559;28;45270;-89
2023/05/01 07:40:35;;;;;;;;;12.50;9.25;;;;;;;;5030515;28;47144;-85
2023/05/01 07:43:01;;;;;;;;;9.50;7.50;;;;;;;;5031865;28;46942;-86
2023/05/01 07:45:26;;;;;;;;;13.25;6.50;;;;;;;;5019928;28;45259;-86
2023/05/01 07:47:52;;;;;;;;;9.75;5.25;;;;;;;;5023364;28;45532;-84
2023/05/01 07:50:17;;;;;;;;;7.75;6.00;;;;;;;;5018740;28;47956;-85
2023/05/01 07:52:42;;;;;;;;;5.00;5.00;;;;;;;;5017617;28;45766;-85
2023/05/01 07:55:08;;;;;;;;;9.50;6.25;;;;;;;;5036288;28;45550;-84
2023/05/01 07:57:34;;;;;;;;;6.25;5.75;;;;;;;;5018623;28;45461;-84
2023/05/01 07:59:59;;;;;;;;;5.25;5.00;;;;;;;;5015439;28;47311;-83
2023/05/01 08:02:25;;;;;;;;;14.75;10.50;;;;;;;;5035391;28;45413;-86
2023/05/01 08:04:50;;;;;;;;;11.33;8.00;;;;;;;;5017972;28;45379;-84
2023/05/01 08:07:15;;;;;;;;;8.75;4.50;;;;;;;;5031688;28;45391;-83
2023/05/01 08:09:41;;;;;;;;;12.25;7.75;;;;;;;;5033488;28;46578;-82
2023/05/01 08:12:06;;;;;;;;;9.00;8.67;;;;;;;;5031491;28;45441;-84
2023/05/01 08:14:31;;;;;;;;;10.75;7.50;;;;;;;;5030258;28;45429;-81
2023/05/01 08:16:56;;;;;;;;;13.33;9.67;;;;;;;;5015826;28;45349;-82
2023/05/01 08:19:22;;;;;;;;;7.50;5.25;;;;;;;;5022957;28;45687;-85
2023/05/01 08:21:47;;;;;;;;;10.00;8.75;;;;;;;;5030002;28;45444;-83
2023/05/01 08:24:13;;;;;;;;;10.67;8.33;;;;;;;;5017326;28;45440;-84
2023/05/01 08:26:38;;;;;;;;;14.75;8.00;;;;;;;;5002366;28;45511;-84
2023/05/01 08:29:03;;;;;;;;;8.67;8.67;;;;;;;;5021021;28;47099;-85
2023/05/01 08:31:28;;;;;;;;;15.33;9.67;;;;;;;;5039181;28;45425;-85
2023/05/01 08:33:53;;;;;;;;;14.33;8.00;;;;;;;;5039068;28;45440;-86
2023/05/01 08:36:19;;;;;;;;;8.67;8.67;;;;;;;;5038759;28;45449;-83
2023/05/01 08:38:44;;;;;;;;;14.67;10.67;;;;;;;;5039034;28;46422;-86
2023/05/01 08:41:15;;;;;;;;;12.00;8.00;;;;;;;;5011893;28;45607;-85
2023/05/01 08:43:40;;;;;;;;;8.75;8.25;;;;;;;;5033211;28;45345;-85
2023/05/01 08:46:06;;;;;;;;;8.25;6.25;;;;;;;;5019333;28;45566;-85
2023/05/01 08:48:34;;;;;;;;;9.50;8.25;;;;;;;;5035875;28;46495;-82
2023/05/01 08:50:59;;;;;;;;;10.75;5.25;;;;;;;;5024453;28;45533;-81
2023/05/01 08:53:25;;;;;;;;;8.75;4.75;;;;;;;;5028764;28;45368;-80
2023/05/01 08:55:51;;;;;;;;;7.50;3.50;;;;;;;;5019637;28;45405;-81
2023/05/01 08:58:16;;;;;;;;;9.50;4.50;;;;;;;;5026807;28;45448;-87
2023/05/01 09:00:42;;;;;;;;;11.50;5.00;;;;;;;;5004319;28;45916;-82
2023/05/01 09:03:10;;;;;;;;;6.25;6.25;;;;;;;;5020584;28;45711;-82
2023/05/01 09:05:35;;;;;;;;;8.00;4.50;;;;;;;;5018792;28;45421;-82
2023/05/01 09:08:00;;;;;;;;;13.50;5.00;;;;;;;;5018525;28;46472;-83
2023/05/01 09:10:26;;;;;;;;;4.00;4.00;;;;;;;;5036510;28;45369;-82
2023/05/01 09:12:55;;;;;;;;;9.25;4.25;;;;;;;;5038413;28;45447;-82
2023/05/01 09:15:20;;;;;;;;;8.75;4.00;;;;;;;;5038510;28;45579;-82
2023/05/01 09:17:46;;;;;;;;;5.00;3.75;;;;;;;;5038073;28;46396;-81
2023/05/01 09:20:11;;;;;;;;;3.25;1.25;;;;;;;;5037950;28;45455;-82
2023/05/01 09:22:37;;;;;;;;;6.00;4.25;;;;;;;;5038387;28;45450;-82
2023/05/01 09:25:03;;;;;;;;;3.00;2.50;;;;;;;;5038232;28;45341;-82
2023/05/01 09:27:32;;;;;;;;;8.00;4.00;;;;;;;;5038065;28;46505;-82
2023/05/01 09:29:57;;;;;;;;;6.00;4.00;;;;;;;;5038079;28;45883;-82
2023/05/01 09:32:23;;;;;;;;;8.00;4.67;;;;;;;;5038183;28;45257;-82
2023/05/01 09:34:50;;;;;;;;;4.75;4.00;;;;;;;;5037668;28;45337;-83
2023/05/01 09:37:28;;;;;;;;;3.00;3.00;;;;;;;;5037621;28;46529;-82
2023/05/01 09:40:23;;;;;;;;;5.25;2.50;;;;;;;;5019005;28;45528;-82
2023/05/01 09:42:48;;;;;;;;;2.50;2.00;;;;;;;;4937467;28;45576;-82
2023/05/01 09:45:14;;;;;;;;;3.50;2.25;;;;;;;;4921601;28;45615;-82
2023/05/01 09:47:40;;;;;;;;;1.00;1.00;;;;;;;;4937260;28;45301;-82
2023/05/01 09:50:05;;;;;;;;;1.00;1.00;;;;;;;;4936951;28;45619;-82
2023/05/01 09:52:32;;;;;;;;;3.50;3.00;;;;;;;;4937437;28;45380;-82
2023/05/01 09:55:13;;;;;;;;;1.75;1.00;;;;;;;;4937438;28;45335;-82
2023/05/01 09:57:38;;;;;;;;;4.50;3.50;;;;;;;;4920979;28;47118;-82
2023/05/01 10:00:07;;;;;;;;;3.00;1.50;;;;;;;;4937234;28;45414;-83
2023/05/01 10:02:33;;;;;;;;;8.50;4.00;;;;;;;;4936916;28;45366;-81
2023/05/01 10:04:59;;;;;;;;;6.00;2.75;;;;;;;;4921044;28;45575;-82
2023/05/01 10:07:24;;;;;;;;;3.00;2.25;;;;;;;;4936901;28;46320;-82
2023/05/01 10:09:50;;;;;;;;;7.50;2.00;;;;;;;;4936746;28;45459;-82
2023/05/01 10:12:23;;;;;;;;;7.75;4.75;;;;;;;;4920686;28;45503;-83
2023/05/01 10:14:49;;;;;;;;;4.75;2.00;;;;;;;;4936956;28;45452;-82
2023/05/01 10:17:20;;;;;;;;;4.75;2.75;;;;;;;;4936436;28;45425;-82
2023/05/01 10:19:48;;;;;;;;;5.00;5.00;;;;;;;;4995575;28;45392;-83
2023/05/01 10:22:14;;;;;;;;;5.75;5.25;;;;;;;;5017495;28;45386;-82
2023/05/01 10:24:39;;;;;;;;;4.50;4.25;;;;;;;;5017645;28;45373;-80
2023/05/01 10:27:05;;;;;;;;;6.75;6.00;;;;;;;;5017044;28;45737;-83
2023/05/01 10:29:33;;;;;;;;;6.50;4.00;;;;;;;;5017453;28;45414;-82
2023/05/01 10:31:58;;;;;;;;;4.00;3.00;;;;;;;;5016943;28;45375;-80
2023/05/01 10:34:24;;;;;;;;;3.00;3.00;;;;;;;;5017291;28;45441;-80
2023/05/01 10:37:01;;;;;;;;;6.00;3.00;;;;;;;;4999167;28;47864;-82
2023/05/01 10:39:34;;;;;;;;;3.00;3.00;;;;;;;;5017079;28;45362;-82
2023/05/01 10:42:07;;;;;;;;;7.00;5.00;;;;;;;;5017363;28;45296;-80
2023/05/01 10:44:33;;;;;;;;;4.25;3.50;;;;;;;;5017029;28;45501;-82
2023/05/01 10:46:59;;;;;;;;;4.00;3.75;;;;;;;;5016458;28;45482;-82
2023/05/01 10:49:24;;;;;;;;;3.75;3.75;;;;;;;;5017172;28;45389;-82
2023/05/01 10:51:56;;;;;;;;;5.50;4.00;;;;;;;;5016583;28;45258;-82
2023/05/01 10:54:22;;;;;;;;;5.75;5.25;;;;;;;;5017085;28;45345;-80
2023/05/01 10:56:48;;;;;;;;;5.50;3.50;;;;;;;;5016715;28;46210;-82
2023/05/01 10:59:13;;;;;;;;;3.50;2.25;;;;;;;;5017068;28;45385;-80
2023/05/01 11:01:39;;;;;;;;;6.00;4.00;;;;;;;;5016726;28;45358;-82
2023/05/01 11:04:06;;;;;;;;;7.00;4.75;;;;;;;;4998972;28;45354;-80
2023/05/01 11:06:32;;;;;;;;;6.50;4.00;;;;;;;;5016717;28;47460;-80
2023/05/01 11:08:58;;;;;;;;;1.50;1.50;;;;;;;;5016525;28;45480;-80
2023/05/01 11:11:23;;;;;;;;;8.75;5.00;;;;;;;;5018041;28;45409;-80
2023/05/01 11:13:58;;;;;;;;;6.33;3.33;;;;;;;;5036661;28;45340;-81
2023/05/01 11:16:34;;;;;;;;;8.00;4.00;;;;;;;;5035995;28;46334;-80
2023/05/01 11:18:59;;;;;;;;;7.00;4.50;;;;;;;;5036342;28;45320;-81
2023/05/01 11:21:28;;;;;;;;;5.75;3.75;;;;;;;;5036560;28;45308;-82
2023/05/01 11:23:53;;;;;;;;;7.25;3.00;;;;;;;;5036419;28;45436;-81
2023/05/01 11:26:21;;;;;;;;;5.75;3.75;;;;;;;;5036158;28;45344;-81
2023/05/01 11:28:47;;;;;;;;;4.75;4.00;;;;;;;;5036321;28;45518;-81
2023/05/01 11:31:16;;;;;;;;;6.75;4.75;;;;;;;;5036087;28;46084;-81
2023/05/01 11:33:42;;;;;;;;;3.75;2.75;;;;;;;;5036552;28;45390;-81
2023/05/01 11:36:07;;;;;;;;;9.33;5.00;;;;;;;;5036016;28;45424;-81
2023/05/01 11:38:32;;;;;;;;;2.25;2.25;;;;;;;;5035833;28;45346;-81
2023/05/01 11:40:58;;;;;;;;;1.67;1.67;;;;;;;;5036407;28;45373;-81
2023/05/01 11:43:24;;;;;;;;;2.25;2.00;;;;;;;;5036107;28;45313;-82
2023/05/01 11:45:51;;;;;;;;;3.75;2.00;;;;;;;;5035444;28;46175;-81
2023/05/01 11:48:16;;;;;;;;;2.50;2.25;;;;;;;;5036084;28;45313;-82
2023/05/01 11:50:41;;;;;;;;;4.67;3.67;;;;;;;;5036112;28;45397;-82
2023/05/01 11:53:11;;;;;;;;;4.67;2.00;;;;;;;;5035956;28;45458;-82
2023/05/01 11:55:37;;;;;;;;;1.00;0.25;;;;;;;;5035561;28;45485;-82
2023/05/01 11:58:03;;;;;;;;;2.00;0.00;;;;;;;;5036031;28;45392;-82
2023/05/01 12:00:28;;;;;;;;;0.25;0.00;;;;;;;;5035939;28;45396;-80
2023/05/01 12:03:07;;;;;;;;;0.00;0.00;;;;;;;;5035170;28;45380;-80
2023/05/01 12:05:35;;;;;;;;;0.75;0.00;;;;;;;;5035620;28;45512;-80
2023/05/01 12:08:06;;;;;;;;;0.00;0.00;;;;;;;;5035709;28;45604;-80
2023/05/01 12:10:32;;;;;;;;;0.00;0.00;;;;;;;;5035745;28;45295;-80
2023/05/01 12:12:58;;;;;;;;;0.00;0.00;;;;;;;;5034964;28;45616;-80
2023/05/01 12:15:23;;;;;;;;;0.00;0.00;;;;;;;;5017718;28;47120;-80
2023/05/01 12:17:49;;;;;;;;;0.00;0.00;;;;;;;;5035551;28;45405;-81
2023/05/01 12:20:14;;;;;;;;;0.00;0.00;;;;;;;;5035538;28;45356;-80
2023/05/01 12:22:49;;;;;;;;;0.00;0.00;;;;;;;;5035501;28;45322;-80
2023/05/01 12:25:15;;;;;;;;;0.00;0.00;;;;;;;;5035368;28;46454;-80
2023/05/01 12:27:41;;;;;;;;;0.00;0.00;;;;;;;;5035075;28;45318;-80
2023/05/01 12:30:07;;;;;;;;;0.00;0.00;;;;;;;;5035589;28;45317;-80
2023/05/01 12:32:32;;;;;;;;;0.00;0.00;;;;;;;;5035447;28;45343;-80
2023/05/01 12:34:58;;;;;;;;;0.00;0.00;;;;;;;;5035272;28;47178;-80
2023/05/01 12:37:28;;;;;;;;;0.00;0.00;;;;;;;;5035279;28;45341;-80
2023/05/01 12:39:53;;;;;;;;;1.00;0.00;;;;;;;;5035390;28;45324;-79
2023/05/01 12:42:19;;;;;;;;;1.00;1.00;;;;;;;;5035177;28;45368;-80
2023/05/01 12:44:44;;;;;;;;;1.00;0.00;;;;;;;;5035166;28;46070;-80
2023/05/01 12:47:11;;;;;;;;;0.00;0.00;;;;;;;;5035028;28;45547;-80
2023/05/01 12:49:36;;;;;;;;;0.00;0.00;;;;;;;;5035384;28;45389;-80
2023/05/01 12:52:02;;;;;;;;;0.00;0.00;;;;;;;;5035150;28;45321;-80
2023/05/01 12:54:28;;;;;;;;;1.00;1.00;;;;;;;;5035043;28;47168;-80
2023/05/01 12:57:03;;;;;;;;;4.00;2.00;;;;;;;;5034697;28;45452;-80
2023/05/01 12:59:28;;;;;;;;;4.75;2.00;;;;;;;;5035038;28;45359;-80
2023/05/01 13:01:59;;;;;;;;;2.67;1.33;;;;;;;;5035166;28;45530;-79
2023/05/01 13:04:25;;;;;;;;;2.00;2.00;;;;;;;;5034863;28;46520;-80
2023/05/01 13:06:51;;;;;;;;;4.00;1.25;;;;;;;;5034879;28;45329;-80
2023/05/01 13:09:16;;;;;;;;;3.75;1.25;;;;;;;;5034978;28;45494;-80
2023/05/01 13:11:42;;;;;;;;;1.00;1.00;;;;;;;;5034303;28;45350;-80
2023/05/01 13:14:08;;;;;;;;;5.50;2.00;;;;;;;;5036324;28;46029;-80
2023/05/01 13:16:33;;;;;;;;;1.00;1.00;;;;;;;;5038174;28;45416;-80
2023/05/01 13:18:59;;;;;;;;;5.00;2.00;;;;;;;;5020266;28;45358;-80
2023/05/01 13:21:25;;;;;;;;;2.50;2.00;;;;;;;;5038416;28;45688;-81
2023/05/01 13:23:52;;;;;;;;;1.75;1.00;;;;;;;;5038059;28;47235;-80
2023/05/01 13:26:22;;;;;;;;;3.00;1.75;;;;;;;;5037821;28;45407;-80
2023/05/01 13:28:47;;;;;;;;;0.00;0.00;;;;;;;;5038445;28;45364;-80
2023/05/01 13:31:13;;;;;;;;;0.33;0.33;;;;;;;;5038197;28;45909;-81
2023/05/01 13:33:42;;;;;;;;;0.00;0.00;;;;;;;;5037854;28;45409;-81
2023/05/01 13:36:08;;;;;;;;;5.00;1.00;;;;;;;;5031763;28;45359;-82
2023/05/01 13:38:37;;;;;;;;;1.25;0.50;;;;;;;;5038051;28;45457;-81
2023/05/01 13:41:03;;;;;;;;;1.75;1.75;;;;;;;;5037837;28;45523;-81
2023/05/01 13:43:28;;;;;;;;;2.00;1.00;;;;;;;;5037667;28;45381;-82
2023/05/01 13:45:56;;;;;;;;;0.75;0.00;;;;;;;;5038251;28;45416;-82
2023/05/01 13:48:21;;;;;;;;;0.50;0.50;;;;;;;;5038276;28;45553;-81
2023/05/01 13:50:47;;;;;;;;;0.67;0.67;;;;;;;;5038068;28;45264;-81
2023/05/01 13:53:12;;;;;;;;;2.25;1.50;;;;;;;;5037572;28;47343;-81
2023/05/01 13:55:38;;;;;;;;;3.25;1.75;;;;;;;;5019638;28;45468;-81
2023/05/01 13:58:04;;;;;;;;;3.00;1.25;;;;;;;;5037761;28;45381;-81
2023/05/01 14:00:30;;;;;;;;;3.75;2.00;;;;;;;;5019867;28;45429;-80
2023/05/01 14:02:58;;;;;;;;;3.00;2.25;;;;;;;;5037581;28;47076;-81
2023/05/01 14:05:26;;;;;;;;;6.25;2.00;;;;;;;;5019795;28;45544;-81
2023/05/01 14:07:56;;;;;;;;;6.00;2.75;;;;;;;;5037691;28;45486;-82
2023/05/01 14:10:22;;;;;;;;;5.00;2.00;;;;;;;;5036992;28;45302;-81
2023/05/01 14:12:47;;;;;;;;;4.50;3.00;;;;;;;;5019344;28;48039;-81
2023/05/01 14:15:13;;;;;;;;;4.00;3.00;;;;;;;;5037454;28;45471;-81
2023/05/01 14:17:38;;;;;;;;;6.00;4.25;;;;;;;;5037383;28;45348;-81
2023/05/01 14:20:04;;;;;;;;;5.00;1.50;;;;;;;;5037416;28;45207;-80
2023/05/01 14:22:50;;;;;;;;;4.50;3.50;;;;;;;;5037190;28;46548;-81
2023/05/01 14:25:23;;;;;;;;;6.75;5.00;;;;;;;;5036291;28;45285;-81
2023/05/01 14:27:49;;;;;;;;;7.25;4.75;;;;;;;;5037310;28;45540;-81